Time;durP1;ratioP1;P1;durP2;ratioP2;P2;SDS_P1;SDS_P2;PMS_P1;PMS_P2;Temp;Humidity;BMP_temperature;BMP_pressure;BME280_temperature;BME280_humidity;BME280_pressure;Samples;Min_cycle;Max_cycle;Signal;HPM_P1;HPM_P2
2024/03/04 00:00:32;;;;;;;17.40;6.60;;;;;;;;;;5013619;28;20129;-78
2024/03/04 00:02:59;;;;;;;22.42;9.43;;;;;;;;;;5013289;28;20052;-78
2024/03/04 00:05:25;;;;;;;19.55;8.63;;;;;;;;;;5014162;28;20100;-78
2024/03/04 00:07:52;;;;;;;21.17;8.32;;;;;;;;;;5013316;28;20050;-77
2024/03/04 00:10:20;;;;;;;26.13;9.45;;;;;;;;;;5014051;28;20204;-78
2024/03/04 00:12:47;;;;;;;18.40;8.45;;;;;;;;;;5013584;28;20129;-78
2024/03/04 00:15:14;;;;;;;18.02;7.65;;;;;;;;;;5012851;28;20042;-78
2024/03/04 00:17:40;;;;;;;31.20;8.20;;;;;;;;;;5013014;28;20046;-78
2024/03/04 00:20:09;;;;;;;19.13;7.30;;;;;;;;;;4996615;28;20045;-78
2024/03/04 00:22:36;;;;;;;14.80;6.32;;;;;;;;;;5013159;28;20052;-77
2024/03/04 00:25:06;;;;;;;18.60;7.03;;;;;;;;;;5014261;28;20100;-78
2024/03/04 00:27:33;;;;;;;20.63;7.38;;;;;;;;;;5013718;28;20052;-78
2024/03/04 00:30:00;;;;;;;26.85;8.43;;;;;;;;;;5014365;28;20088;-78
2024/03/04 00:32:27;;;;;;;31.77;10.60;;;;;;;;;;5012513;28;20045;-78
2024/03/04 00:34:54;;;;;;;31.90;9.85;;;;;;;;;;5012901;28;20088;-78
2024/03/04 00:37:21;;;;;;;17.70;7.95;;;;;;;;;;5012565;28;20042;-78
2024/03/04 00:39:48;;;;;;;24.75;9.20;;;;;;;;;;4996445;28;20046;-78
2024/03/04 00:42:16;;;;;;;25.55;9.85;;;;;;;;;;5013514;28;20072;-78
2024/03/04 00:44:43;;;;;;;34.23;14.23;;;;;;;;;;5012840;28;20480;-77
2024/03/04 00:47:10;;;;;;;22.80;9.43;;;;;;;;;;5013457;28;20284;-78
2024/03/04 00:49:37;;;;;;;16.63;6.70;;;;;;;;;;5014152;28;20038;-78
2024/03/04 00:52:04;;;;;;;19.92;8.63;;;;;;;;;;5014192;28;20042;-78
2024/03/04 00:54:31;;;;;;;24.70;7.70;;;;;;;;;;5012794;28;20041;-78
2024/03/04 00:56:57;;;;;;;19.30;8.50;;;;;;;;;;5012926;28;20046;-78
2024/03/04 00:59:24;;;;;;;18.50;7.50;;;;;;;;;;5012252;28;20057;-77
2024/03/04 01:01:51;;;;;;;16.35;6.88;;;;;;;;;;5013841;28;20041;-78
2024/03/04 01:04:17;;;;;;;17.58;6.45;;;;;;;;;;5010660;28;20132;-77
2024/03/04 01:06:44;;;;;;;13.05;6.10;;;;;;;;;;5013589;28;20048;-78
2024/03/04 01:09:11;;;;;;;13.40;5.50;;;;;;;;;;5011857;28;20052;-78
2024/03/04 01:11:38;;;;;;;12.85;5.70;;;;;;;;;;5013559;28;20100;-78
2024/03/04 01:14:05;;;;;;;17.13;6.60;;;;;;;;;;5011949;28;20046;-77
2024/03/04 01:16:33;;;;;;;16.10;6.38;;;;;;;;;;5012184;28;20049;-78
2024/03/04 01:19:00;;;;;;;16.00;6.45;;;;;;;;;;5009754;28;20125;-78
2024/03/04 01:21:27;;;;;;;20.77;6.68;;;;;;;;;;5012913;28;20050;-78
2024/03/04 01:23:54;;;;;;;14.57;6.80;;;;;;;;;;5012017;28;20041;-78
2024/03/04 01:26:21;;;;;;;16.13;8.00;;;;;;;;;;5011394;28;20544;-78
2024/03/04 01:28:47;;;;;;;22.65;7.85;;;;;;;;;;5013061;28;20381;-78
2024/03/04 01:31:15;;;;;;;19.92;7.47;;;;;;;;;;5011516;28;20090;-78
2024/03/04 01:33:42;;;;;;;27.05;10.30;;;;;;;;;;5011808;28;20050;-77
2024/03/04 01:36:09;;;;;;;25.35;11.60;;;;;;;;;;4996660;28;20038;-79
2024/03/04 01:38:36;;;;;;;22.23;12.20;;;;;;;;;;5011555;28;20046;-78
2024/03/04 01:41:03;;;;;;;22.92;12.32;;;;;;;;;;5012945;28;20076;-78
2024/03/04 01:43:30;;;;;;;24.02;10.30;;;;;;;;;;5010265;28;20046;-78
2024/03/04 01:45:56;;;;;;;21.20;8.88;;;;;;;;;;5011841;28;20045;-78
2024/03/04 01:48:23;;;;;;;16.25;7.35;;;;;;;;;;5012549;28;20080;-78
2024/03/04 01:50:51;;;;;;;17.98;7.22;;;;;;;;;;5009419;28;20046;-78
2024/03/04 01:53:18;;;;;;;26.17;6.32;;;;;;;;;;5012456;28;20045;-78
2024/03/04 01:55:50;;;;;;;9.95;5.10;;;;;;;;;;5012701;28;20042;-78
2024/03/04 01:58:18;;;;;;;11.23;4.05;;;;;;;;;;5012356;28;20070;-78
2024/03/04 02:00:48;;;;;;;12.32;3.22;;;;;;;;;;5011068;28;20707;-77
2024/03/04 02:03:17;;;;;;;10.23;4.00;;;;;;;;;;5009366;28;20092;-78
2024/03/04 02:05:48;;;;;;;;;;;;;;;;;;5010664;28;20062;-78
2024/03/04 02:08:16;;;;;;;8.90;2.85;;;;;;;;;;5011880;28;20012;-78
2024/03/04 02:10:44;;;;;;;9.23;3.20;;;;;;;;;;5012617;28;20133;-78
2024/03/04 02:13:11;;;;;;;9.48;3.97;;;;;;;;;;5010700;28;20126;-78
2024/03/04 02:15:38;;;;;;;9.95;4.15;;;;;;;;;;5012205;28;20054;-78
2024/03/04 02:18:06;;;;;;;13.88;4.45;;;;;;;;;;4994659;28;20373;-78
2024/03/04 02:20:41;;;;;;;13.32;4.50;;;;;;;;;;5017216;28;20043;-77
2024/03/04 02:23:10;;;;;;;12.43;2.75;;;;;;;;;;5012345;28;20407;-78
2024/03/04 02:25:37;;;;;;;9.52;2.47;;;;;;;;;;5011852;28;20054;-77
2024/03/04 02:28:04;;;;;;;8.63;2.13;;;;;;;;;;5012038;28;20049;-77
2024/03/04 02:30:32;;;;;;;8.85;1.67;;;;;;;;;;5012443;28;20133;-78
2024/03/04 02:33:02;;;;;;;9.43;1.73;;;;;;;;;;5011051;28;20480;-78
2024/03/04 02:35:33;;;;;;;7.80;1.58;;;;;;;;;;5012165;28;20117;-78
2024/03/04 02:38:02;;;;;;;4.30;1.10;;;;;;;;;;5012360;28;20104;-78
2024/03/04 02:40:28;;;;;;;;;;;;;;;;;;5011005;28;20045;-78
2024/03/04 02:42:55;;;;;;;5.40;1.60;;;;;;;;;;5012215;28;19930;-78
2024/03/04 02:45:22;;;;;;;7.53;1.33;;;;;;;;;;5012079;28;20038;-78
2024/03/04 02:47:49;;;;;;;8.15;1.25;;;;;;;;;;5010698;28;20049;-78
2024/03/04 02:50:16;;;;;;;10.45;2.35;;;;;;;;;;4994812;28;20080;-78
2024/03/04 02:52:44;;;;;;;6.30;1.60;;;;;;;;;;4995572;28;20484;-78
2024/03/04 02:55:11;;;;;;;10.82;1.83;;;;;;;;;;5011094;28;20137;-78
2024/03/04 02:57:38;;;;;;;6.82;2.08;;;;;;;;;;5011685;28;20042;-78
2024/03/04 03:00:06;;;;;;;7.05;1.40;;;;;;;;;;5011534;28;20141;-78
2024/03/04 03:02:32;;;;;;;11.40;1.33;;;;;;;;;;5011402;28;20380;-78
2024/03/04 03:04:59;;;;;;;8.43;1.42;;;;;;;;;;5011194;28;20484;-78
2024/03/04 03:07:26;;;;;;;6.18;1.27;;;;;;;;;;5011007;28;20412;-78
2024/03/04 03:09:54;;;;;;;10.05;1.00;;;;;;;;;;5011320;28;20050;-78
2024/03/04 03:12:21;;;;;;;7.28;1.10;;;;;;;;;;5010889;28;20045;-77
2024/03/04 03:14:48;;;;;;;5.80;1.20;;;;;;;;;;5011378;28;20100;-79
2024/03/04 03:17:14;;;;;;;7.28;0.90;;;;;;;;;;4996580;28;20070;-77
2024/03/04 03:19:41;;;;;;;11.45;1.05;;;;;;;;;;5014944;28;20084;-78
2024/03/04 03:22:08;;;;;;;10.75;1.23;;;;;;;;;;5017226;28;20049;-78
2024/03/04 03:24:35;;;;;;;7.07;1.42;;;;;;;;;;5016081;28;20089;-78
2024/03/04 03:27:02;;;;;;;8.20;1.25;;;;;;;;;;5014036;28;20045;-78
2024/03/04 03:29:28;;;;;;;10.68;1.45;;;;;;;;;;5014114;28;20048;-78
2024/03/04 03:31:55;;;;;;;4.88;1.52;;;;;;;;;;4997110;28;20467;-78
2024/03/04 03:34:22;;;;;;;7.53;1.00;;;;;;;;;;5012612;28;20046;-78
2024/03/04 03:36:49;;;;;;;7.18;1.00;;;;;;;;;;5012946;28;20046;-79
2024/03/04 03:39:19;;;;;;;11.00;2.15;;;;;;;;;;5016299;28;20061;-78
2024/03/04 03:41:46;;;;;;;8.55;1.75;;;;;;;;;;5015051;28;20428;-77
2024/03/04 03:44:13;;;;;;;4.05;1.23;;;;;;;;;;5015732;28;20488;-78
2024/03/04 03:46:40;;;;;;;5.22;0.93;;;;;;;;;;5014624;28;20481;-78
2024/03/04 03:49:07;;;;;;;6.50;1.20;;;;;;;;;;5014015;28;20054;-78
2024/03/04 03:51:36;;;;;;;7.30;0.80;;;;;;;;;;5015609;28;20178;-79
2024/03/04 03:54:03;;;;;;;9.00;1.50;;;;;;;;;;5015803;28;20058;-78
2024/03/04 03:56:30;;;;;;;4.80;0.90;;;;;;;;;;5014205;28;20120;-79
2024/03/04 03:58:56;;;;;;;8.20;0.90;;;;;;;;;;5015618;28;20068;-79
2024/03/04 04:01:23;;;;;;;9.55;1.15;;;;;;;;;;5014017;28;20513;-78
2024/03/04 04:03:50;;;;;;;5.78;0.88;;;;;;;;;;5015333;28;20088;-78
2024/03/04 04:06:17;;;;;;;5.32;1.10;;;;;;;;;;4997537;28;20379;-78
2024/03/04 04:08:44;;;;;;;4.63;0.50;;;;;;;;;;5015261;28;20046;-78
2024/03/04 04:11:10;;;;;;;3.25;0.50;;;;;;;;;;5014932;28;20468;-78
2024/03/04 04:13:37;;;;;;;4.40;0.50;;;;;;;;;;5014130;28;20267;-78
2024/03/04 04:16:04;;;;;;;2.67;0.70;;;;;;;;;;5014973;28;20046;-77
2024/03/04 04:18:31;;;;;;;4.53;0.70;;;;;;;;;;5014968;28;20046;-79
2024/03/04 04:20:58;;;;;;;3.72;0.80;;;;;;;;;;5014946;28;20053;-78
2024/03/04 04:23:25;;;;;;;4.88;1.20;;;;;;;;;;5013401;28;20049;-78
2024/03/04 04:25:52;;;;;;;3.53;0.60;;;;;;;;;;5014997;28;20053;-78
2024/03/04 04:28:19;;;;;;;7.32;0.85;;;;;;;;;;4996002;28;20481;-79
2024/03/04 04:30:46;;;;;;;5.13;0.60;;;;;;;;;;5014917;28;20038;-79
2024/03/04 04:33:12;;;;;;;5.85;0.70;;;;;;;;;;5013317;28;20128;-78
2024/03/04 04:35:39;;;;;;;5.45;0.63;;;;;;;;;;5013318;28;20046;-78
2024/03/04 04:38:06;;;;;;;5.80;0.60;;;;;;;;;;5014601;28;20037;-78
2024/03/04 04:40:33;;;;;;;8.05;0.75;;;;;;;;;;5022245;28;20480;-79
2024/03/04 04:42:59;;;;;;;3.80;0.63;;;;;;;;;;5013403;28;20499;-78
2024/03/04 04:45:26;;;;;;;4.00;0.77;;;;;;;;;;5014197;28;20046;-78
2024/03/04 04:47:53;;;;;;;1.88;0.40;;;;;;;;;;5013684;28;20049;-78
2024/03/04 04:50:21;;;;;;;4.82;0.52;;;;;;;;;;5014274;28;20075;-78
2024/03/04 04:52:48;;;;;;;5.43;0.77;;;;;;;;;;5014621;28;20065;-78
2024/03/04 04:55:15;;;;;;;6.00;0.75;;;;;;;;;;5012948;28;20124;-79
2024/03/04 04:57:44;;;;;;;7.90;0.70;;;;;;;;;;5014557;28;20054;-77
2024/03/04 05:00:12;;;;;;;4.50;0.57;;;;;;;;;;5012560;28;20064;-78
2024/03/04 05:02:40;;;;;;;5.22;0.60;;;;;;;;;;5013251;28;20097;-78
2024/03/04 05:05:07;;;;;;;4.93;0.60;;;;;;;;;;5013871;28;20396;-78
2024/03/04 05:07:35;;;;;;;6.50;0.77;;;;;;;;;;4996826;28;20396;-79
2024/03/04 05:10:03;;;;;;;5.35;0.77;;;;;;;;;;5014332;28;20061;-79
2024/03/04 05:12:30;;;;;;;4.00;0.63;;;;;;;;;;5012771;28;20049;-79
2024/03/04 05:14:57;;;;;;;3.33;0.60;;;;;;;;;;5014053;28;20050;-79
2024/03/04 05:17:24;;;;;;;4.82;0.63;;;;;;;;;;5013732;28;20104;-79
2024/03/04 05:19:51;;;;;;;2.38;0.38;;;;;;;;;;5014095;28;20132;-79
2024/03/04 05:22:18;;;;;;;5.30;0.60;;;;;;;;;;5013494;28;20073;-79
2024/03/04 05:24:45;;;;;;;5.70;0.60;;;;;;;;;;5014075;28;20060;-78
2024/03/04 05:27:12;;;;;;;4.82;0.80;;;;;;;;;;5013409;28;20124;-79
2024/03/04 05:29:39;;;;;;;5.70;0.70;;;;;;;;;;5012573;28;20049;-78
2024/03/04 05:32:06;;;;;;;4.45;0.57;;;;;;;;;;5012280;28;20137;-77
2024/03/04 05:34:33;;;;;;;7.32;0.90;;;;;;;;;;5013916;28;20107;-78
2024/03/04 05:37:00;;;;;;;5.43;0.80;;;;;;;;;;5013907;28;20408;-79
2024/03/04 05:39:31;;;;;;;6.13;0.70;;;;;;;;;;5013238;28;20604;-78
2024/03/04 05:41:58;;;;;;;4.15;0.80;;;;;;;;;;5012323;28;20526;-78
2024/03/04 05:44:25;;;;;;;4.30;0.80;;;;;;;;;;5011856;28;20053;-78
2024/03/04 05:46:52;;;;;;;11.32;1.30;;;;;;;;;;5013668;28;20038;-78
2024/03/04 05:49:19;;;;;;;7.57;1.02;;;;;;;;;;5013243;28;20104;-78
2024/03/04 05:51:45;;;;;;;4.57;0.60;;;;;;;;;;5012212;28;20492;-78
2024/03/04 05:54:12;;;;;;;3.53;0.50;;;;;;;;;;5012821;28;20046;-77
2024/03/04 05:56:41;;;;;;;4.47;0.80;;;;;;;;;;5012264;28;20050;-78
2024/03/04 05:59:08;;;;;;;4.50;0.68;;;;;;;;;;5011901;28;20120;-78
2024/03/04 06:01:35;;;;;;;5.20;0.90;;;;;;;;;;5013317;28;20050;-78
2024/03/04 06:04:02;;;;;;;4.67;0.73;;;;;;;;;;5013581;28;20136;-78
2024/03/04 06:06:29;;;;;;;5.15;0.60;;;;;;;;;;5011894;28;20128;-82
2024/03/04 06:08:58;;;;;;;8.88;1.08;;;;;;;;;;4994813;28;20064;-78
2024/03/04 06:11:27;;;;;;;;;;;;;;;;;;5013415;28;20045;-79
2024/03/04 06:13:54;;;;;;;6.55;1.55;;;;;;;;;;5013099;28;20379;-79
2024/03/04 06:16:21;;;;;;;8.00;0.63;;;;;;;;;;5011534;28;20049;-79
2024/03/04 06:18:48;;;;;;;7.68;0.70;;;;;;;;;;5013061;28;20042;-78
2024/03/04 06:21:15;;;;;;;4.70;1.05;;;;;;;;;;5012882;28;20395;-78
2024/03/04 06:23:41;;;;;;;7.78;0.70;;;;;;;;;;5011877;28;20049;-78
2024/03/04 06:26:11;;;;;;;9.35;1.20;;;;;;;;;;5011545;28;20387;-79
2024/03/04 06:28:38;;;;;;;4.72;1.10;;;;;;;;;;5014332;28;20050;-80
2024/03/04 06:31:06;;;;;;;6.15;1.10;;;;;;;;;;4995165;28;20077;-79
2024/03/04 06:33:33;;;;;;;5.18;0.98;;;;;;;;;;4994399;28;20052;-79
2024/03/04 06:36:18;;;;;;;9.82;1.05;;;;;;;;;;4991436;28;20085;-79
2024/03/04 06:38:45;;;;;;;6.03;1.38;;;;;;;;;;4990693;28;20289;-78
2024/03/04 06:41:12;;;;;;;6.30;0.82;;;;;;;;;;5006343;28;20169;-79
2024/03/04 06:43:39;;;;;;;5.15;0.70;;;;;;;;;;4995608;28;20042;-79
2024/03/04 06:46:07;;;;;;;7.53;0.90;;;;;;;;;;5011344;28;20050;-79
2024/03/04 06:48:34;;;;;;;8.77;1.65;;;;;;;;;;5012952;28;20468;-78
2024/03/04 06:51:01;;;;;;;6.22;1.00;;;;;;;;;;5012876;28;20077;-79
2024/03/04 06:53:28;;;;;;;8.98;1.23;;;;;;;;;;5016272;28;20142;-78
2024/03/04 06:55:54;;;;;;;4.25;0.80;;;;;;;;;;5016757;28;20053;-79
2024/03/04 06:58:23;;;;;;;8.52;0.80;;;;;;;;;;5014321;28;20038;-79
2024/03/04 07:00:51;;;;;;;;;;;;;;;;;;5015817;28;20048;-79
2024/03/04 07:03:18;;;;;;;7.55;1.50;;;;;;;;;;5015236;28;19972;-78
2024/03/04 07:05:45;;;;;;;9.77;1.70;;;;;;;;;;5016564;28;20544;-79
2024/03/04 07:08:12;;;;;;;10.07;2.25;;;;;;;;;;5015627;28;20045;-79
2024/03/04 07:10:38;;;;;;;7.20;1.10;;;;;;;;;;5015423;28;20064;-78
2024/03/04 07:13:05;;;;;;;7.72;1.45;;;;;;;;;;5015875;28;20515;-79
2024/03/04 07:15:32;;;;;;;5.22;1.00;;;;;;;;;;5016386;28;20045;-79
2024/03/04 07:17:59;;;;;;;5.50;1.00;;;;;;;;;;5015187;28;20048;-79
2024/03/04 07:20:26;;;;;;;11.50;1.20;;;;;;;;;;4998239;28;20124;-78
2024/03/04 07:22:53;;;;;;;7.22;1.20;;;;;;;;;;5016317;28;20048;-78
2024/03/04 07:25:19;;;;;;;7.32;1.73;;;;;;;;;;5015802;28;20046;-79
2024/03/04 07:27:47;;;;;;;5.43;0.88;;;;;;;;;;5016174;28;20050;-78
2024/03/04 07:30:14;;;;;;;6.55;0.80;;;;;;;;;;4998606;28;20054;-78
2024/03/04 07:32:40;;;;;;;6.15;1.15;;;;;;;;;;5015961;28;20088;-79
2024/03/04 07:35:08;;;;;;;9.23;1.00;;;;;;;;;;5015194;28;20374;-78
2024/03/04 07:37:35;;;;;;;7.32;1.25;;;;;;;;;;5016084;28;20095;-79
2024/03/04 07:40:03;;;;;;;5.90;1.40;;;;;;;;;;5015643;28;20041;-79
2024/03/04 07:42:31;;;;;;;8.38;1.23;;;;;;;;;;5015172;28;20053;-79
2024/03/04 07:44:57;;;;;;;7.10;1.23;;;;;;;;;;5012958;28;20041;-79
2024/03/04 07:47:24;;;;;;;9.10;0.93;;;;;;;;;;5012462;28;20050;-79
2024/03/04 07:49:51;;;;;;;13.50;2.03;;;;;;;;;;5012805;28;20073;-79
2024/03/04 07:52:19;;;;;;;14.13;2.35;;;;;;;;;;5012582;28;20534;-79
2024/03/04 07:54:46;;;;;;;5.53;1.23;;;;;;;;;;5012819;28;20058;-79
2024/03/04 07:57:12;;;;;;;8.95;1.30;;;;;;;;;;5012461;28;20563;-79
2024/03/04 07:59:49;;;;;;;6.30;1.75;;;;;;;;;;5014119;28;20129;-78
2024/03/04 08:02:16;;;;;;;10.80;1.98;;;;;;;;;;5012192;28;20442;-78
2024/03/04 08:04:43;;;;;;;12.73;1.85;;;;;;;;;;5014523;28;20065;-77
2024/03/04 08:07:11;;;;;;;10.23;2.00;;;;;;;;;;4996118;28;20045;-78
2024/03/04 08:09:39;;;;;;;9.00;1.15;;;;;;;;;;5012653;28;20527;-80
2024/03/04 08:12:07;;;;;;;10.02;1.25;;;;;;;;;;5012189;28;20056;-78
2024/03/04 08:14:36;;;;;;;10.80;1.50;;;;;;;;;;5013926;28;20064;-79
2024/03/04 08:17:03;;;;;;;14.13;2.20;;;;;;;;;;5012597;28;20417;-78
2024/03/04 08:19:31;;;;;;;8.15;1.50;;;;;;;;;;5013778;28;20048;-79
2024/03/04 08:21:58;;;;;;;12.07;1.50;;;;;;;;;;5012293;28;20480;-79
2024/03/04 08:24:25;;;;;;;9.30;1.60;;;;;;;;;;5012836;28;20115;-79
2024/03/04 08:26:52;;;;;;;11.52;1.70;;;;;;;;;;5001960;28;20046;-79
2024/03/04 08:29:18;;;;;;;11.73;1.60;;;;;;;;;;5013214;28;20054;-79
2024/03/04 08:31:47;;;;;;;14.05;1.70;;;;;;;;;;5012115;28;20473;-78
2024/03/04 08:34:15;;;;;;;12.55;1.70;;;;;;;;;;5013055;28;20443;-78
2024/03/04 08:36:41;;;;;;;11.25;1.90;;;;;;;;;;5025426;28;20045;-79
2024/03/04 08:39:10;;;;;;;14.48;1.92;;;;;;;;;;5016057;28;20463;-79
2024/03/04 08:41:45;;;;;;;;;;;;;;;;;;5011643;28;20496;-79
2024/03/04 08:44:13;;;;;;;17.33;2.28;;;;;;;;;;5012225;28;20364;-79
2024/03/04 08:46:40;;;;;;;12.07;1.42;;;;;;;;;;4995767;28;20046;-78
2024/03/04 08:49:07;;;;;;;18.83;1.98;;;;;;;;;;5013261;28;20133;-79
2024/03/04 08:51:34;;;;;;;16.20;2.50;;;;;;;;;;4997017;28;20476;-82
2024/03/04 08:54:02;;;;;;;12.52;1.58;;;;;;;;;;4996673;28;20073;-82
2024/03/04 08:56:30;;;;;;;21.10;1.80;;;;;;;;;;4995235;28;20144;-79
2024/03/04 08:58:59;;;;;;;12.97;1.53;;;;;;;;;;5012910;28;20058;-79
2024/03/04 09:01:26;;;;;;;10.38;1.75;;;;;;;;;;5012246;28;20076;-79
2024/03/04 09:03:54;;;;;;;15.75;2.30;;;;;;;;;;5013071;28;20100;-79
2024/03/04 09:06:21;;;;;;;12.60;2.00;;;;;;;;;;5012104;28;20045;-79
2024/03/04 09:08:48;;;;;;;13.88;1.90;;;;;;;;;;5012828;28;20045;-79
2024/03/04 09:11:14;;;;;;;16.65;2.10;;;;;;;;;;5012314;28;20046;-80
2024/03/04 09:13:42;;;;;;;22.55;2.80;;;;;;;;;;5012871;28;20046;-79
2024/03/04 09:16:09;;;;;;;14.07;2.55;;;;;;;;;;5010780;28;20050;-79
2024/03/04 09:18:40;;;;;;;17.00;2.72;;;;;;;;;;4996457;28;20041;-79
2024/03/04 09:21:07;;;;;;;17.42;2.25;;;;;;;;;;5012126;28;20046;-79
2024/03/04 09:23:34;;;;;;;15.85;1.83;;;;;;;;;;5014010;28;20093;-78
2024/03/04 09:26:03;;;;;;;16.70;2.78;;;;;;;;;;5014281;28;20512;-79
2024/03/04 09:28:30;;;;;;;9.23;1.80;;;;;;;;;;5013778;28;20050;-78
2024/03/04 09:30:57;;;;;;;25.13;6.55;;;;;;;;;;5013470;28;20050;-79
2024/03/04 09:33:23;;;;;;;17.83;4.25;;;;;;;;;;5013096;28;20127;-78
2024/03/04 09:35:50;;;;;;;19.98;3.10;;;;;;;;;;4978047;28;20046;-78
2024/03/04 09:38:17;;;;;;;16.83;2.72;;;;;;;;;;4991895;28;20389;-79
2024/03/04 09:40:45;;;;;;;21.05;2.60;;;;;;;;;;4988903;28;20061;-78
2024/03/04 09:43:14;;;;;;;18.25;2.65;;;;;;;;;;5011841;28;20056;-78
2024/03/04 09:45:42;;;;;;;19.67;2.70;;;;;;;;;;5012167;28;20057;-78
2024/03/04 09:48:10;;;;;;;14.90;3.00;;;;;;;;;;5012395;28;20037;-79
2024/03/04 09:50:40;;;;;;;25.98;4.03;;;;;;;;;;4996453;28;20052;-79
2024/03/04 09:53:09;;;;;;;15.02;4.07;;;;;;;;;;5012718;28;20065;-78
2024/03/04 09:55:36;;;;;;;19.90;3.45;;;;;;;;;;4995872;28;20472;-78
2024/03/04 09:58:04;;;;;;;23.73;3.35;;;;;;;;;;5013609;28;20062;-79
2024/03/04 10:00:32;;;;;;;26.48;4.00;;;;;;;;;;5012981;28;20053;-77
2024/03/04 10:02:59;;;;;;;22.13;3.33;;;;;;;;;;5012809;28;20038;-78
2024/03/04 10:05:26;;;;;;;21.45;4.13;;;;;;;;;;5012601;28;20280;-78
2024/03/04 10:07:53;;;;;;;22.42;2.85;;;;;;;;;;5011443;28;20045;-79
2024/03/04 10:10:20;;;;;;;18.63;3.30;;;;;;;;;;5012868;28;20038;-78
2024/03/04 10:12:47;;;;;;;20.23;2.83;;;;;;;;;;5012049;28;20074;-78
2024/03/04 10:15:14;;;;;;;21.08;3.72;;;;;;;;;;4994888;28;20128;-79
2024/03/04 10:17:41;;;;;;;13.85;2.90;;;;;;;;;;5012022;28;20129;-78
2024/03/04 10:20:11;;;;;;;17.85;3.58;;;;;;;;;;4995300;28;20072;-79
2024/03/04 10:22:39;;;;;;;22.67;2.67;;;;;;;;;;5013230;28;20134;-78
2024/03/04 10:25:08;;;;;;;11.67;2.77;;;;;;;;;;4994459;28;20042;-78
2024/03/04 10:27:37;;;;;;;22.10;2.60;;;;;;;;;;5014474;28;20034;-79
2024/03/04 10:30:11;;;;;;;23.08;2.80;;;;;;;;;;5017056;28;20042;-78
2024/03/04 10:32:49;;;;;;;21.17;2.60;;;;;;;;;;4997527;28;20544;-77
2024/03/04 10:35:17;;;;;;;23.33;3.53;;;;;;;;;;5013187;28;20149;-79
2024/03/04 10:37:45;;;;;;;16.55;3.17;;;;;;;;;;5014851;28;20034;-79
2024/03/04 10:40:12;;;;;;;15.35;2.55;;;;;;;;;;5014625;28;20041;-78
2024/03/04 10:42:45;;;;;;;11.68;1.65;;;;;;;;;;4993669;28;20042;-79
2024/03/04 10:45:13;;;;;;;15.88;3.05;;;;;;;;;;5013925;28;20053;-78
2024/03/04 10:47:41;;;;;;;18.33;2.60;;;;;;;;;;5016548;28;20060;-78
2024/03/04 10:50:12;;;;;;;25.35;2.85;;;;;;;;;;4998529;28;20400;-79
2024/03/04 10:52:39;;;;;;;19.30;3.58;;;;;;;;;;4999180;28;20104;-78
2024/03/04 10:55:06;;;;;;;17.85;2.92;;;;;;;;;;4998494;28;20377;-78
2024/03/04 10:57:34;;;;;;;15.25;2.70;;;;;;;;;;5014913;28;20037;-79
2024/03/04 11:03:09;;;;;;;18.40;3.08;;;;;;;;;;5014864;28;20108;-78
2024/03/04 11:05:40;;;;;;;18.27;2.50;;;;;;;;;;5014072;28;20049;-79
2024/03/04 11:08:19;;;;;;;19.80;2.65;;;;;;;;;;5013977;28;20046;-79
2024/03/04 11:10:49;;;;;;;15.57;3.60;;;;;;;;;;5016332;28;20133;-79
2024/03/04 11:13:35;;;;;;;12.98;2.38;;;;;;;;;;5014375;28;20141;-79
2024/03/04 11:16:38;;;;;;;13.27;2.10;;;;;;;;;;5015056;28;20047;-79
2024/03/04 11:20:05;;;;;;;18.85;2.63;;;;;;;;;;4992256;28;20480;-79
2024/03/04 11:22:32;;;;;;;17.55;3.13;;;;;;;;;;4960485;28;20070;-78
2024/03/04 11:25:00;;;;;;;16.27;2.67;;;;;;;;;;4976161;28;20121;-79
2024/03/04 11:27:27;;;;;;;11.77;1.90;;;;;;;;;;4993433;28;20043;-79
2024/03/04 11:29:55;;;;;;;9.40;1.60;;;;;;;;;;4960962;28;20140;-79
2024/03/04 11:32:26;;;;;;;11.45;2.00;;;;;;;;;;4976662;28;20441;-79
2024/03/04 11:35:05;;;;;;;11.93;2.38;;;;;;;;;;4976689;28;20046;-80
2024/03/04 11:37:49;;;;;;;15.52;2.88;;;;;;;;;;4990268;28;20101;-80
2024/03/04 11:40:18;;;;;;;23.88;4.00;;;;;;;;;;4980611;28;20066;-80
2024/03/04 11:42:46;;;;;;;32.50;4.40;;;;;;;;;;4975501;28;20145;-79
2024/03/04 11:45:19;;;;;;;23.83;3.70;;;;;;;;;;4980488;28;20525;-83
2024/03/04 11:47:50;;;;;;;25.27;4.53;;;;;;;;;;4942963;28;20047;-79
2024/03/04 11:50:43;;;;;;;18.52;3.60;;;;;;;;;;4957564;28;20426;-80
2024/03/04 11:53:22;;;;;;;23.58;4.05;;;;;;;;;;4991298;28;20050;-80
2024/03/04 11:55:49;;;;;;;;;;;;;;;;;;4996180;28;20042;-78
2024/03/04 11:58:17;;;;;;;28.23;4.43;;;;;;;;;;4995732;28;19928;-80
2024/03/04 12:00:44;;;;;;;28.90;5.95;;;;;;;;;;4995844;28;20054;-79
2024/03/04 12:03:14;;;;;;;26.05;5.60;;;;;;;;;;4995481;28;20089;-79
2024/03/04 12:05:42;;;;;;;32.70;5.13;;;;;;;;;;5000345;28;20476;-79
2024/03/04 12:08:09;;;;;;;34.83;6.60;;;;;;;;;;5013405;28;20038;-79
2024/03/04 12:10:56;;;;;;;39.25;7.75;;;;;;;;;;5014181;28;20536;-80
2024/03/04 12:13:23;;;;;;;43.55;9.18;;;;;;;;;;4996696;28;20042;-80
2024/03/04 12:15:50;;;;;;;32.60;6.72;;;;;;;;;;5013499;28;20392;-79
2024/03/04 12:18:16;;;;;;;43.92;5.80;;;;;;;;;;4996266;28;20053;-79
2024/03/04 12:20:45;;;;;;;54.08;11.77;;;;;;;;;;5012268;28;20042;-79
2024/03/04 12:23:15;;;;;;;68.97;8.70;;;;;;;;;;4996472;28;20062;-79
2024/03/04 12:25:41;;;;;;;57.55;7.40;;;;;;;;;;5012127;28;20073;-79
2024/03/04 12:28:17;;;;;;;51.00;9.73;;;;;;;;;;5012319;28;20088;-79
2024/03/04 12:30:44;;;;;;;40.25;6.10;;;;;;;;;;4993641;28;20432;-79
2024/03/04 12:33:11;;;;;;;57.97;13.57;;;;;;;;;;5014341;28;20052;-79
2024/03/04 12:35:37;;;;;;;45.95;7.93;;;;;;;;;;5012860;28;20053;-80
2024/03/04 12:38:04;;;;;;;40.85;8.38;;;;;;;;;;5013546;28;20038;-79
2024/03/04 12:40:31;;;;;;;40.35;15.73;;;;;;;;;;5013109;28;20046;-79
2024/03/04 12:43:02;;;;;;;36.50;18.10;;;;;;;;;;5011849;28;20112;-79
2024/03/04 12:45:31;;;;;;;45.25;17.75;;;;;;;;;;5022431;28;20077;-79
2024/03/04 12:47:58;;;;;;;53.25;19.38;;;;;;;;;;5013208;28;20046;-79
2024/03/04 12:50:27;;;;;;;44.78;14.38;;;;;;;;;;5028987;28;20133;-79
2024/03/04 12:52:55;;;;;;;32.47;7.97;;;;;;;;;;4995776;28;20042;-79
2024/03/04 12:55:23;;;;;;;35.92;7.85;;;;;;;;;;5011249;28;20042;-78
2024/03/04 12:57:56;;;;;;;32.95;5.93;;;;;;;;;;5012627;28;20044;-80
2024/03/04 13:00:24;;;;;;;43.42;5.20;;;;;;;;;;5008134;28;20057;-79
2024/03/04 13:02:50;;;;;;;38.17;7.40;;;;;;;;;;5010509;28;20042;-79
2024/03/04 13:05:17;;;;;;;39.22;5.03;;;;;;;;;;4992573;28;20073;-79
2024/03/04 13:07:45;;;;;;;48.80;8.02;;;;;;;;;;5011058;28;20370;-79
2024/03/04 13:10:13;;;;;;;34.05;4.82;;;;;;;;;;4990623;28;20065;-79
2024/03/04 13:12:41;;;;;;;47.22;8.13;;;;;;;;;;5007683;28;20046;-79
2024/03/04 13:15:09;;;;;;;40.42;5.70;;;;;;;;;;4992278;28;20047;-80
2024/03/04 13:17:38;;;;;;;42.00;5.72;;;;;;;;;;4993833;28;20092;-79
2024/03/04 13:20:09;;;;;;;31.77;3.90;;;;;;;;;;5003167;28;20073;-79
2024/03/04 13:22:40;;;;;;;39.78;8.57;;;;;;;;;;5012544;28;20168;-79
2024/03/04 13:25:07;;;;;;;33.00;3.95;;;;;;;;;;4994827;28;20042;-78
2024/03/04 13:27:35;;;;;;;27.08;4.40;;;;;;;;;;5007899;28;20439;-79
2024/03/04 13:30:03;;;;;;;25.83;3.20;;;;;;;;;;5013103;28;20129;-79
2024/03/04 13:32:31;;;;;;;28.30;3.00;;;;;;;;;;4995556;28;20108;-79
2024/03/04 13:34:58;;;;;;;23.80;3.38;;;;;;;;;;5011190;28;20076;-79
2024/03/04 13:37:26;;;;;;;23.30;3.17;;;;;;;;;;4993971;28;20053;-80
2024/03/04 13:39:53;;;;;;;30.20;3.63;;;;;;;;;;4995088;28;20392;-80
2024/03/04 13:42:21;;;;;;;24.30;4.20;;;;;;;;;;5011513;28;20049;-79
2024/03/04 13:44:48;;;;;;;27.00;3.85;;;;;;;;;;5013134;28;20045;-79
2024/03/04 13:47:15;;;;;;;24.42;4.32;;;;;;;;;;5012876;28;20034;-79
2024/03/04 13:49:43;;;;;;;27.48;5.65;;;;;;;;;;5010685;28;20281;-79
2024/03/04 13:52:10;;;;;;;28.45;3.78;;;;;;;;;;5011571;28;20088;-79
2024/03/04 13:54:36;;;;;;;37.00;5.68;;;;;;;;;;5009838;28;20042;-79
2024/03/04 13:57:03;;;;;;;40.03;4.72;;;;;;;;;;5012352;28;20038;-79
2024/03/04 13:59:30;;;;;;;31.10;4.85;;;;;;;;;;5011036;28;20139;-79
2024/03/04 14:02:03;;;;;;;31.88;5.93;;;;;;;;;;5009506;28;20038;-78
2024/03/04 14:04:30;;;;;;;19.55;3.38;;;;;;;;;;5011273;28;20048;-79
2024/03/04 14:06:58;;;;;;;19.63;5.05;;;;;;;;;;5010760;28;20046;-79
2024/03/04 14:09:28;;;;;;;19.60;2.77;;;;;;;;;;5011324;28;20464;-79
2024/03/04 14:11:55;;;;;;;20.10;5.82;;;;;;;;;;5011635;28;20281;-78
2024/03/04 14:14:22;;;;;;;19.85;3.50;;;;;;;;;;5009776;28;20048;-79
2024/03/04 14:16:49;;;;;;;21.05;5.13;;;;;;;;;;5010474;28;20165;-78
2024/03/04 14:19:16;;;;;;;16.88;2.63;;;;;;;;;;5011303;28;20050;-79
2024/03/04 14:21:43;;;;;;;25.92;3.70;;;;;;;;;;5000543;28;20056;-79
2024/03/04 14:24:09;;;;;;;13.48;2.63;;;;;;;;;;4992856;28;20108;-78
2024/03/04 14:26:37;;;;;;;27.27;4.20;;;;;;;;;;5010811;28;20156;-79
2024/03/04 14:29:04;;;;;;;14.75;2.72;;;;;;;;;;5010094;28;20724;-79
2024/03/04 14:31:33;;;;;;;21.13;3.10;;;;;;;;;;5010133;28;20456;-79
2024/03/04 14:34:00;;;;;;;20.27;3.15;;;;;;;;;;5010610;28;20121;-79
2024/03/04 14:36:28;;;;;;;15.90;2.15;;;;;;;;;;5009016;28;20050;-79
2024/03/04 14:38:55;;;;;;;10.23;1.50;;;;;;;;;;5010958;28;20042;-79
2024/03/04 14:41:22;;;;;;;9.55;2.75;;;;;;;;;;5010945;28;20050;-79
2024/03/04 14:43:49;;;;;;;7.93;1.90;;;;;;;;;;5011039;28;20034;-79